sensor_id;sensor_type;location;lat;lon;timestamp;P1;durP1;ratioP1;P2;durP2;ratioP2
29662;SDS011;16578;53.266;7.920;2023-05-29T00:02:11;15.77;;;4.68;;
29662;SDS011;16578;53.266;7.920;2023-05-29T00:04:36;13.30;;;4.22;;
29662;SDS011;16578;53.266;7.920;2023-05-29T00:07:02;11.32;;;4.35;;
29662;SDS011;16578;53.266;7.920;2023-05-29T00:09:28;17.33;;;4.47;;
29662;SDS011;16578;53.266;7.920;2023-05-29T00:11:54;21.58;;;4.75;;
29662;SDS011;16578;53.266;7.920;2023-05-29T00:14:20;14.52;;;4.30;;
29662;SDS011;16578;53.266;7.920;2023-05-29T00:16:47;17.02;;;4.68;;
29662;SDS011;16578;53.266;7.920;2023-05-29T00:19:13;14.77;;;4.28;;
29662;SDS011;16578;53.266;7.920;2023-05-29T00:21:41;14.90;;;4.32;;
29662;SDS011;16578;53.266;7.920;2023-05-29T00:24:07;13.25;;;4.20;;
29662;SDS011;16578;53.266;7.920;2023-05-29T00:26:33;13.93;;;4.13;;
29662;SDS011;16578;53.266;7.920;2023-05-29T00:28:59;14.05;;;4.93;;
29662;SDS011;16578;53.266;7.920;2023-05-29T00:31:24;16.33;;;4.00;;
29662;SDS011;16578;53.266;7.920;2023-05-29T00:33:50;18.83;;;4.70;;
29662;SDS011;16578;53.266;7.920;2023-05-29T00:36:16;15.73;;;4.28;;
29662;SDS011;16578;53.266;7.920;2023-05-29T00:38:41;13.68;;;4.50;;
29662;SDS011;16578;53.266;7.920;2023-05-29T00:41:07;17.80;;;5.07;;
29662;SDS011;16578;53.266;7.920;2023-05-29T00:43:37;15.75;;;4.78;;
29662;SDS011;16578;53.266;7.920;2023-05-29T00:46:03;11.93;;;4.38;;
29662;SDS011;16578;53.266;7.920;2023-05-29T00:48:29;11.63;;;4.18;;
29662;SDS011;16578;53.266;7.920;2023-05-29T00:50:54;17.60;;;4.57;;
29662;SDS011;16578;53.266;7.920;2023-05-29T00:53:21;17.55;;;4.18;;
29662;SDS011;16578;53.266;7.920;2023-05-29T00:55:47;12.68;;;4.18;;
29662;SDS011;16578;53.266;7.920;2023-05-29T00:58:13;20.42;;;4.50;;
29662;SDS011;16578;53.266;7.920;2023-05-29T01:00:39;12.07;;;4.43;;
29662;SDS011;16578;53.266;7.920;2023-05-29T01:03:05;13.32;;;4.13;;
29662;SDS011;16578;53.266;7.920;2023-05-29T01:05:33;16.08;;;5.03;;
29662;SDS011;16578;53.266;7.920;2023-05-29T01:08:00;12.68;;;4.45;;
29662;SDS011;16578;53.266;7.920;2023-05-29T01:10:27;19.77;;;5.10;;
29662;SDS011;16578;53.266;7.920;2023-05-29T01:13:01;19.95;;;5.43;;
29662;SDS011;16578;53.266;7.920;2023-05-29T01:18:19;15.30;;;4.80;;
29662;SDS011;16578;53.266;7.920;2023-05-29T01:21:16;9.52;;;4.18;;
29662;SDS011;16578;53.266;7.920;2023-05-29T01:24:03;14.82;;;4.20;;
29662;SDS011;16578;53.266;7.920;2023-05-29T01:29:22;17.60;;;5.07;;
29662;SDS011;16578;53.266;7.920;2023-05-29T01:34:17;13.43;;;4.25;;
29662;SDS011;16578;53.266;7.920;2023-05-29T01:36:42;16.38;;;4.85;;
29662;SDS011;16578;53.266;7.920;2023-05-29T01:39:08;11.68;;;4.05;;
29662;SDS011;16578;53.266;7.920;2023-05-29T01:41:34;17.38;;;4.13;;
29662;SDS011;16578;53.266;7.920;2023-05-29T01:44:02;15.45;;;5.15;;
29662;SDS011;16578;53.266;7.920;2023-05-29T01:46:29;15.13;;;4.20;;
29662;SDS011;16578;53.266;7.920;2023-05-29T01:48:55;12.32;;;4.35;;
29662;SDS011;16578;53.266;7.920;2023-05-29T01:51:21;16.60;;;4.85;;
29662;SDS011;16578;53.266;7.920;2023-05-29T01:53:46;13.27;;;4.35;;
29662;SDS011;16578;53.266;7.920;2023-05-29T01:56:12;16.15;;;4.88;;
29662;SDS011;16578;53.266;7.920;2023-05-29T01:58:38;16.60;;;4.50;;
29662;SDS011;16578;53.266;7.920;2023-05-29T02:01:05;13.70;;;4.00;;
29662;SDS011;16578;53.266;7.920;2023-05-29T02:03:31;14.80;;;4.57;;
29662;SDS011;16578;53.266;7.920;2023-05-29T02:05:58;10.18;;;3.63;;
29662;SDS011;16578;53.266;7.920;2023-05-29T02:08:24;13.25;;;4.45;;
29662;SDS011;16578;53.266;7.920;2023-05-29T02:10:50;12.13;;;3.97;;
29662;SDS011;16578;53.266;7.920;2023-05-29T02:13:16;12.85;;;3.97;;
29662;SDS011;16578;53.266;7.920;2023-05-29T02:15:42;16.65;;;4.38;;
29662;SDS011;16578;53.266;7.920;2023-05-29T02:18:09;17.70;;;4.75;;
29662;SDS011;16578;53.266;7.920;2023-05-29T02:20:37;19.27;;;4.78;;
29662;SDS011;16578;53.266;7.920;2023-05-29T02:23:03;15.57;;;4.30;;
29662;SDS011;16578;53.266;7.920;2023-05-29T02:25:28;17.52;;;4.22;;
29662;SDS011;16578;53.266;7.920;2023-05-29T02:27:54;13.82;;;4.53;;
29662;SDS011;16578;53.266;7.920;2023-05-29T02:30:20;18.33;;;4.65;;
29662;SDS011;16578;53.266;7.920;2023-05-29T02:32:45;13.65;;;4.90;;
29662;SDS011;16578;53.266;7.920;2023-05-29T02:35:11;15.32;;;4.85;;
29662;SDS011;16578;53.266;7.920;2023-05-29T02:37:40;15.07;;;4.53;;
29662;SDS011;16578;53.266;7.920;2023-05-29T02:40:08;15.13;;;4.20;;
29662;SDS011;16578;53.266;7.920;2023-05-29T02:42:35;15.98;;;4.25;;
29662;SDS011;16578;53.266;7.920;2023-05-29T02:45:00;9.98;;;3.78;;
29662;SDS011;16578;53.266;7.920;2023-05-29T02:47:26;14.48;;;4.10;;
29662;SDS011;16578;53.266;7.920;2023-05-29T02:49:51;14.48;;;4.20;;
29662;SDS011;16578;53.266;7.920;2023-05-29T02:52:17;13.02;;;4.35;;
29662;SDS011;16578;53.266;7.920;2023-05-29T02:54:42;17.27;;;4.47;;
29662;SDS011;16578;53.266;7.920;2023-05-29T02:57:08;16.77;;;4.68;;
29662;SDS011;16578;53.266;7.920;2023-05-29T02:59:34;9.43;;;3.75;;
29662;SDS011;16578;53.266;7.920;2023-05-29T03:02:00;13.57;;;4.15;;
29662;SDS011;16578;53.266;7.920;2023-05-29T03:04:26;25.38;;;4.30;;
29662;SDS011;16578;53.266;7.920;2023-05-29T03:06:52;16.98;;;4.78;;
29662;SDS011;16578;53.266;7.920;2023-05-29T03:09:18;13.25;;;3.90;;
29662;SDS011;16578;53.266;7.920;2023-05-29T03:11:44;15.38;;;5.07;;
29662;SDS011;16578;53.266;7.920;2023-05-29T03:14:12;15.87;;;4.67;;
29662;SDS011;16578;53.266;7.920;2023-05-29T03:16:38;14.48;;;4.13;;
29662;SDS011;16578;53.266;7.920;2023-05-29T03:19:05;10.80;;;3.92;;
29662;SDS011;16578;53.266;7.920;2023-05-29T03:21:32;13.13;;;3.90;;
29662;SDS011;16578;53.266;7.920;2023-05-29T03:23:58;15.98;;;4.95;;
29662;SDS011;16578;53.266;7.920;2023-05-29T03:26:24;12.30;;;4.05;;
29662;SDS011;16578;53.266;7.920;2023-05-29T03:28:50;16.50;;;4.68;;
29662;SDS011;16578;53.266;7.920;2023-05-29T03:31:16;16.02;;;4.47;;
29662;SDS011;16578;53.266;7.920;2023-05-29T03:33:41;13.13;;;3.78;;
29662;SDS011;16578;53.266;7.920;2023-05-29T03:36:07;14.27;;;4.25;;
29662;SDS011;16578;53.266;7.920;2023-05-29T03:38:33;18.02;;;4.38;;
29662;SDS011;16578;53.266;7.920;2023-05-29T03:40:58;9.70;;;3.42;;
29662;SDS011;16578;53.266;7.920;2023-05-29T03:43:24;15.80;;;5.20;;
29662;SDS011;16578;53.266;7.920;2023-05-29T03:45:50;14.10;;;4.30;;
29662;SDS011;16578;53.266;7.920;2023-05-29T03:48:16;16.48;;;4.80;;
29662;SDS011;16578;53.266;7.920;2023-05-29T03:50:41;14.10;;;4.25;;
29662;SDS011;16578;53.266;7.920;2023-05-29T03:53:07;13.55;;;4.45;;
29662;SDS011;16578;53.266;7.920;2023-05-29T03:55:32;11.18;;;3.97;;
29662;SDS011;16578;53.266;7.920;2023-05-29T03:57:58;11.52;;;4.05;;
29662;SDS011;16578;53.266;7.920;2023-05-29T04:00:23;11.07;;;3.63;;
29662;SDS011;16578;53.266;7.920;2023-05-29T04:02:49;12.73;;;4.55;;
29662;SDS011;16578;53.266;7.920;2023-05-29T04:05:14;15.52;;;4.22;;
29662;SDS011;16578;53.266;7.920;2023-05-29T04:07:41;12.00;;;3.92;;
29662;SDS011;16578;53.266;7.920;2023-05-29T04:10:07;14.57;;;4.63;;
29662;SDS011;16578;53.266;7.920;2023-05-29T04:12:33;12.07;;;4.28;;
29662;SDS011;16578;53.266;7.920;2023-05-29T04:14:59;12.45;;;4.15;;
29662;SDS011;16578;53.266;7.920;2023-05-29T04:17:24;10.65;;;3.58;;
29662;SDS011;16578;53.266;7.920;2023-05-29T04:19:50;12.70;;;4.10;;
29662;SDS011;16578;53.266;7.920;2023-05-29T04:22:16;14.35;;;4.30;;
29662;SDS011;16578;53.266;7.920;2023-05-29T04:24:41;16.50;;;5.00;;
29662;SDS011;16578;53.266;7.920;2023-05-29T04:27:08;12.70;;;4.00;;
29662;SDS011;16578;53.266;7.920;2023-05-29T04:29:37;12.10;;;4.30;;
29662;SDS011;16578;53.266;7.920;2023-05-29T04:32:07;16.70;;;4.43;;
29662;SDS011;16578;53.266;7.920;2023-05-29T04:34:34;17.52;;;4.50;;
29662;SDS011;16578;53.266;7.920;2023-05-29T04:37:00;11.45;;;4.10;;
29662;SDS011;16578;53.266;7.920;2023-05-29T04:39:27;12.88;;;4.75;;
29662;SDS011;16578;53.266;7.920;2023-05-29T04:41:53;15.50;;;4.53;;
29662;SDS011;16578;53.266;7.920;2023-05-29T04:44:19;12.63;;;4.57;;
29662;SDS011;16578;53.266;7.920;2023-05-29T04:46:44;15.43;;;4.22;;
29662;SDS011;16578;53.266;7.920;2023-05-29T04:49:12;13.20;;;5.07;;
29662;SDS011;16578;53.266;7.920;2023-05-29T04:51:40;17.60;;;4.88;;
29662;SDS011;16578;53.266;7.920;2023-05-29T04:54:10;9.75;;;3.97;;
29662;SDS011;16578;53.266;7.920;2023-05-29T04:56:36;15.10;;;4.78;;
29662;SDS011;16578;53.266;7.920;2023-05-29T04:59:02;13.48;;;4.20;;
29662;SDS011;16578;53.266;7.920;2023-05-29T05:01:28;12.50;;;5.03;;
29662;SDS011;16578;53.266;7.920;2023-05-29T05:03:54;11.82;;;4.45;;
29662;SDS011;16578;53.266;7.920;2023-05-29T05:06:22;13.32;;;4.82;;
29662;SDS011;16578;53.266;7.920;2023-05-29T05:08:50;18.80;;;5.22;;
29662;SDS011;16578;53.266;7.920;2023-05-29T05:11:16;16.67;;;4.93;;
29662;SDS011;16578;53.266;7.920;2023-05-29T05:13:42;11.73;;;4.07;;
29662;SDS011;16578;53.266;7.920;2023-05-29T05:16:08;14.77;;;5.20;;
29662;SDS011;16578;53.266;7.920;2023-05-29T05:18:34;14.63;;;4.95;;
29662;SDS011;16578;53.266;7.920;2023-05-29T05:20:59;14.57;;;4.45;;
29662;SDS011;16578;53.266;7.920;2023-05-29T05:23:25;14.48;;;4.95;;
29662;SDS011;16578;53.266;7.920;2023-05-29T05:25:50;10.63;;;4.40;;
29662;SDS011;16578;53.266;7.920;2023-05-29T05:28:16;12.82;;;4.80;;
29662;SDS011;16578;53.266;7.920;2023-05-29T05:30:41;18.85;;;5.20;;
29662;SDS011;16578;53.266;7.920;2023-05-29T05:33:07;14.13;;;4.65;;
29662;SDS011;16578;53.266;7.920;2023-05-29T05:35:33;17.75;;;4.53;;
29662;SDS011;16578;53.266;7.920;2023-05-29T05:37:58;17.42;;;5.60;;
29662;SDS011;16578;53.266;7.920;2023-05-29T05:40:25;15.57;;;4.18;;
29662;SDS011;16578;53.266;7.920;2023-05-29T05:42:51;11.23;;;4.70;;
29662;SDS011;16578;53.266;7.920;2023-05-29T05:45:16;13.25;;;4.75;;
29662;SDS011;16578;53.266;7.920;2023-05-29T05:47:42;14.82;;;4.57;;
29662;SDS011;16578;53.266;7.920;2023-05-29T05:50:08;15.20;;;5.00;;
29662;SDS011;16578;53.266;7.920;2023-05-29T05:52:34;15.05;;;4.95;;
29662;SDS011;16578;53.266;7.920;2023-05-29T05:54:59;13.50;;;4.75;;
29662;SDS011;16578;53.266;7.920;2023-05-29T05:57:25;14.45;;;4.90;;
29662;SDS011;16578;53.266;7.920;2023-05-29T05:59:51;16.15;;;4.90;;
29662;SDS011;16578;53.266;7.920;2023-05-29T06:02:17;22.98;;;5.25;;
29662;SDS011;16578;53.266;7.920;2023-05-29T06:04:43;14.48;;;4.78;;
29662;SDS011;16578;53.266;7.920;2023-05-29T06:07:08;14.15;;;4.85;;
29662;SDS011;16578;53.266;7.920;2023-05-29T06:09:34;14.82;;;4.40;;
29662;SDS011;16578;53.266;7.920;2023-05-29T06:11:59;14.98;;;4.63;;
29662;SDS011;16578;53.266;7.920;2023-05-29T06:14:25;17.00;;;4.95;;
29662;SDS011;16578;53.266;7.920;2023-05-29T06:16:51;18.10;;;5.13;;
29662;SDS011;16578;53.266;7.920;2023-05-29T06:19:16;12.07;;;4.88;;
29662;SDS011;16578;53.266;7.920;2023-05-29T06:21:42;14.48;;;4.20;;
29662;SDS011;16578;53.266;7.920;2023-05-29T06:24:07;14.45;;;4.88;;
29662;SDS011;16578;53.266;7.920;2023-05-29T06:26:33;11.93;;;4.93;;
29662;SDS011;16578;53.266;7.920;2023-05-29T06:28:59;15.80;;;5.50;;
29662;SDS011;16578;53.266;7.920;2023-05-29T06:31:24;17.02;;;5.10;;
29662;SDS011;16578;53.266;7.920;2023-05-29T06:33:50;20.88;;;5.60;;
29662;SDS011;16578;53.266;7.920;2023-05-29T06:36:16;11.73;;;4.75;;
29662;SDS011;16578;53.266;7.920;2023-05-29T06:38:48;12.90;;;4.88;;
29662;SDS011;16578;53.266;7.920;2023-05-29T06:41:14;17.48;;;5.38;;
29662;SDS011;16578;53.266;7.920;2023-05-29T06:43:40;16.15;;;4.85;;
29662;SDS011;16578;53.266;7.920;2023-05-29T06:46:06;17.85;;;5.40;;
29662;SDS011;16578;53.266;7.920;2023-05-29T06:48:35;12.15;;;4.75;;
29662;SDS011;16578;53.266;7.920;2023-05-29T06:51:01;15.70;;;5.15;;
29662;SDS011;16578;53.266;7.920;2023-05-29T06:53:34;11.02;;;4.20;;
29662;SDS011;16578;53.266;7.920;2023-05-29T06:56:03;13.07;;;5.00;;
29662;SDS011;16578;53.266;7.920;2023-05-29T06:58:30;16.90;;;5.28;;
29662;SDS011;16578;53.266;7.920;2023-05-29T07:00:56;16.77;;;5.47;;
29662;SDS011;16578;53.266;7.920;2023-05-29T07:03:22;14.30;;;4.72;;
29662;SDS011;16578;53.266;7.920;2023-05-29T07:05:48;18.27;;;5.32;;
29662;SDS011;16578;53.266;7.920;2023-05-29T07:08:14;21.70;;;5.40;;
29662;SDS011;16578;53.266;7.920;2023-05-29T07:10:40;14.18;;;4.85;;
29662;SDS011;16578;53.266;7.920;2023-05-29T07:13:05;17.88;;;5.00;;
29662;SDS011;16578;53.266;7.920;2023-05-29T07:15:31;13.93;;;4.60;;
29662;SDS011;16578;53.266;7.920;2023-05-29T07:17:57;14.75;;;4.65;;
29662;SDS011;16578;53.266;7.920;2023-05-29T07:20:22;14.00;;;5.35;;
29662;SDS011;16578;53.266;7.920;2023-05-29T07:22:48;15.52;;;5.22;;
29662;SDS011;16578;53.266;7.920;2023-05-29T07:25:14;13.95;;;5.25;;
29662;SDS011;16578;53.266;7.920;2023-05-29T07:27:39;15.43;;;4.93;;
29662;SDS011;16578;53.266;7.920;2023-05-29T07:30:05;17.45;;;4.97;;
29662;SDS011;16578;53.266;7.920;2023-05-29T07:32:32;14.43;;;4.80;;
29662;SDS011;16578;53.266;7.920;2023-05-29T07:34:57;15.93;;;4.88;;
29662;SDS011;16578;53.266;7.920;2023-05-29T07:37:23;14.70;;;5.05;;
29662;SDS011;16578;53.266;7.920;2023-05-29T07:39:49;12.07;;;4.80;;
29662;SDS011;16578;53.266;7.920;2023-05-29T07:42:14;14.48;;;4.55;;
29662;SDS011;16578;53.266;7.920;2023-05-29T07:44:40;14.05;;;5.00;;
29662;SDS011;16578;53.266;7.920;2023-05-29T07:47:11;16.85;;;4.70;;
29662;SDS011;16578;53.266;7.920;2023-05-29T07:49:36;12.30;;;4.40;;
29662;SDS011;16578;53.266;7.920;2023-05-29T07:52:02;16.17;;;4.95;;
29662;SDS011;16578;53.266;7.920;2023-05-29T07:54:28;18.17;;;4.93;;
29662;SDS011;16578;53.266;7.920;2023-05-29T07:56:54;14.55;;;4.63;;
29662;SDS011;16578;53.266;7.920;2023-05-29T07:59:20;12.95;;;5.10;;
29662;SDS011;16578;53.266;7.920;2023-05-29T08:01:46;14.88;;;4.70;;
29662;SDS011;16578;53.266;7.920;2023-05-29T08:04:12;16.40;;;5.45;;
29662;SDS011;16578;53.266;7.920;2023-05-29T08:06:37;16.13;;;4.63;;
29662;SDS011;16578;53.266;7.920;2023-05-29T08:09:07;13.73;;;4.65;;
29662;SDS011;16578;53.266;7.920;2023-05-29T08:11:32;14.15;;;4.93;;
29662;SDS011;16578;53.266;7.920;2023-05-29T08:13:58;20.63;;;4.82;;
29662;SDS011;16578;53.266;7.920;2023-05-29T08:16:24;11.23;;;4.45;;
29662;SDS011;16578;53.266;7.920;2023-05-29T08:18:52;14.90;;;4.90;;
29662;SDS011;16578;53.266;7.920;2023-05-29T08:21:17;14.98;;;4.95;;
29662;SDS011;16578;53.266;7.920;2023-05-29T08:23:43;15.82;;;4.45;;
29662;SDS011;16578;53.266;7.920;2023-05-29T08:26:09;12.30;;;4.53;;
29662;SDS011;16578;53.266;7.920;2023-05-29T08:28:34;12.10;;;4.70;;
29662;SDS011;16578;53.266;7.920;2023-05-29T08:31:00;10.60;;;3.85;;
29662;SDS011;16578;53.266;7.920;2023-05-29T08:33:26;16.63;;;4.95;;
29662;SDS011;16578;53.266;7.920;2023-05-29T08:35:51;15.60;;;4.78;;
29662;SDS011;16578;53.266;7.920;2023-05-29T08:38:17;12.75;;;4.20;;
29662;SDS011;16578;53.266;7.920;2023-05-29T08:40:42;14.05;;;4.88;;
29662;SDS011;16578;53.266;7.920;2023-05-29T08:43:23;20.60;;;4.45;;
29662;SDS011;16578;53.266;7.920;2023-05-29T08:45:54;17.42;;;5.70;;
29662;SDS011;16578;53.266;7.920;2023-05-29T08:48:24;17.88;;;5.03;;
29662;SDS011;16578;53.266;7.920;2023-05-29T08:50:50;14.48;;;5.32;;
29662;SDS011;16578;53.266;7.920;2023-05-29T08:53:18;18.17;;;5.20;;
29662;SDS011;16578;53.266;7.920;2023-05-29T08:55:44;16.35;;;5.22;;
29662;SDS011;16578;53.266;7.920;2023-05-29T08:58:12;11.83;;;4.83;;
29662;SDS011;16578;53.266;7.920;2023-05-29T09:00:39;13.57;;;4.47;;
29662;SDS011;16578;53.266;7.920;2023-05-29T09:03:06;12.57;;;4.55;;
29662;SDS011;16578;53.266;7.920;2023-05-29T09:05:32;15.27;;;5.07;;
29662;SDS011;16578;53.266;7.920;2023-05-29T09:07:58;17.75;;;5.60;;
29662;SDS011;16578;53.266;7.920;2023-05-29T09:10:24;19.02;;;5.07;;
29662;SDS011;16578;53.266;7.920;2023-05-29T09:12:53;11.48;;;4.28;;
29662;SDS011;16578;53.266;7.920;2023-05-29T09:17:49;12.05;;;4.43;;
29662;SDS011;16578;53.266;7.920;2023-05-29T09:20:16;10.75;;;4.18;;
29662;SDS011;16578;53.266;7.920;2023-05-29T09:22:46;10.30;;;4.88;;
29662;SDS011;16578;53.266;7.920;2023-05-29T09:25:22;12.45;;;4.43;;
29662;SDS011;16578;53.266;7.920;2023-05-29T09:27:52;17.73;;;4.15;;
29662;SDS011;16578;53.266;7.920;2023-05-29T09:33:04;12.35;;;4.32;;
29662;SDS011;16578;53.266;7.920;2023-05-29T09:35:35;14.25;;;4.60;;
29662;SDS011;16578;53.266;7.920;2023-05-29T09:38:02;15.88;;;4.40;;
29662;SDS011;16578;53.266;7.920;2023-05-29T09:40:31;10.48;;;3.92;;
29662;SDS011;16578;53.266;7.920;2023-05-29T09:43:01;13.27;;;4.35;;
29662;SDS011;16578;53.266;7.920;2023-05-29T09:45:46;13.63;;;4.63;;
29662;SDS011;16578;53.266;7.920;2023-05-29T09:48:16;15.15;;;4.57;;
29662;SDS011;16578;53.266;7.920;2023-05-29T09:50:43;13.32;;;4.65;;
29662;SDS011;16578;53.266;7.920;2023-05-29T09:53:20;14.68;;;4.57;;
29662;SDS011;16578;53.266;7.920;2023-05-29T09:55:49;14.93;;;4.72;;
29662;SDS011;16578;53.266;7.920;2023-05-29T09:58:16;14.60;;;5.22;;
29662;SDS011;16578;53.266;7.920;2023-05-29T10:00:43;15.13;;;4.00;;
29662;SDS011;16578;53.266;7.920;2023-05-29T10:03:09;13.20;;;4.55;;
29662;SDS011;16578;53.266;7.920;2023-05-29T10:05:37;9.82;;;3.92;;
29662;SDS011;16578;53.266;7.920;2023-05-29T10:08:03;13.32;;;4.05;;
29662;SDS011;16578;53.266;7.920;2023-05-29T10:10:32;13.48;;;4.32;;
29662;SDS011;16578;53.266;7.920;2023-05-29T10:12:59;12.95;;;4.30;;
29662;SDS011;16578;53.266;7.920;2023-05-29T10:15:28;13.23;;;4.32;;
29662;SDS011;16578;53.266;7.920;2023-05-29T10:18:02;15.25;;;4.38;;
29662;SDS011;16578;53.266;7.920;2023-05-29T10:20:29;14.93;;;4.43;;
29662;SDS011;16578;53.266;7.920;2023-05-29T10:22:56;11.35;;;4.25;;
29662;SDS011;16578;53.266;7.920;2023-05-29T10:25:25;15.90;;;3.95;;
29662;SDS011;16578;53.266;7.920;2023-05-29T10:27:54;15.82;;;4.60;;
29662;SDS011;16578;53.266;7.920;2023-05-29T10:38:14;10.10;;;3.80;;
29662;SDS011;16578;53.266;7.920;2023-05-29T10:40:42;14.13;;;4.35;;
29662;SDS011;16578;53.266;7.920;2023-05-29T10:43:08;13.18;;;4.13;;
29662;SDS011;16578;53.266;7.920;2023-05-29T10:50:42;15.88;;;4.13;;
29662;SDS011;16578;53.266;7.920;2023-05-29T10:53:10;13.23;;;3.97;;
29662;SDS011;16578;53.266;7.920;2023-05-29T10:55:40;14.43;;;4.63;;
29662;SDS011;16578;53.266;7.920;2023-05-29T10:58:12;12.68;;;4.18;;
29662;SDS011;16578;53.266;7.920;2023-05-29T11:00:39;13.77;;;4.40;;
29662;SDS011;16578;53.266;7.920;2023-05-29T11:03:09;12.73;;;4.55;;
29662;SDS011;16578;53.266;7.920;2023-05-29T11:05:40;14.02;;;4.45;;
29662;SDS011;16578;53.266;7.920;2023-05-29T11:08:33;13.70;;;4.13;;
29662;SDS011;16578;53.266;7.920;2023-05-29T11:11:00;14.52;;;4.25;;
29662;SDS011;16578;53.266;7.920;2023-05-29T11:13:34;17.25;;;4.70;;
29662;SDS011;16578;53.266;7.920;2023-05-29T11:19:07;12.98;;;4.80;;
29662;SDS011;16578;53.266;7.920;2023-05-29T11:21:44;14.60;;;4.05;;
29662;SDS011;16578;53.266;7.920;2023-05-29T11:24:22;13.18;;;4.45;;
29662;SDS011;16578;53.266;7.920;2023-05-29T11:26:52;12.55;;;4.00;;
29662;SDS011;16578;53.266;7.920;2023-05-29T11:29:22;13.57;;;4.72;;
29662;SDS011;16578;53.266;7.920;2023-05-29T11:31:54;11.13;;;3.90;;
29662;SDS011;16578;53.266;7.920;2023-05-29T11:34:23;15.35;;;4.45;;
29662;SDS011;16578;53.266;7.920;2023-05-29T11:36:51;16.27;;;4.57;;
29662;SDS011;16578;53.266;7.920;2023-05-29T11:39:16;14.60;;;4.35;;
29662;SDS011;16578;53.266;7.920;2023-05-29T11:41:42;14.95;;;4.28;;
29662;SDS011;16578;53.266;7.920;2023-05-29T11:44:08;14.38;;;4.28;;
29662;SDS011;16578;53.266;7.920;2023-05-29T11:46:33;13.55;;;4.00;;
29662;SDS011;16578;53.266;7.920;2023-05-29T11:49:00;12.75;;;4.40;;
29662;SDS011;16578;53.266;7.920;2023-05-29T11:51:27;13.45;;;4.20;;
29662;SDS011;16578;53.266;7.920;2023-05-29T11:53:53;16.00;;;4.32;;
29662;SDS011;16578;53.266;7.920;2023-05-29T11:56:23;15.38;;;4.28;;
29662;SDS011;16578;53.266;7.920;2023-05-29T11:58:52;12.38;;;4.50;;
29662;SDS011;16578;53.266;7.920;2023-05-29T12:01:22;11.18;;;4.72;;
29662;SDS011;16578;53.266;7.920;2023-05-29T12:03:49;14.65;;;4.03;;
29662;SDS011;16578;53.266;7.920;2023-05-29T12:06:15;12.18;;;4.30;;
29662;SDS011;16578;53.266;7.920;2023-05-29T12:08:41;17.80;;;4.50;;
29662;SDS011;16578;53.266;7.920;2023-05-29T12:11:06;12.93;;;4.55;;
29662;SDS011;16578;53.266;7.920;2023-05-29T12:13:33;15.43;;;4.65;;
29662;SDS011;16578;53.266;7.920;2023-05-29T12:16:03;10.05;;;3.90;;
29662;SDS011;16578;53.266;7.920;2023-05-29T12:18:30;13.43;;;4.28;;
29662;SDS011;16578;53.266;7.920;2023-05-29T12:21:02;11.60;;;3.90;;
29662;SDS011;16578;53.266;7.920;2023-05-29T12:23:29;9.65;;;3.75;;
29662;SDS011;16578;53.266;7.920;2023-05-29T12:25:55;11.77;;;3.85;;
29662;SDS011;16578;53.266;7.920;2023-05-29T12:28:21;12.00;;;3.53;;
29662;SDS011;16578;53.266;7.920;2023-05-29T12:30:47;14.95;;;4.10;;
29662;SDS011;16578;53.266;7.920;2023-05-29T12:33:27;11.75;;;3.90;;
29662;SDS011;16578;53.266;7.920;2023-05-29T12:35:54;13.15;;;3.35;;
29662;SDS011;16578;53.266;7.920;2023-05-29T12:38:25;8.98;;;3.80;;
29662;SDS011;16578;53.266;7.920;2023-05-29T12:40:52;9.85;;;4.03;;
29662;SDS011;16578;53.266;7.920;2023-05-29T12:43:18;13.75;;;4.45;;
29662;SDS011;16578;53.266;7.920;2023-05-29T12:45:44;11.90;;;3.70;;
29662;SDS011;16578;53.266;7.920;2023-05-29T12:48:10;10.85;;;3.80;;
29662;SDS011;16578;53.266;7.920;2023-05-29T12:50:39;12.90;;;4.45;;
29662;SDS011;16578;53.266;7.920;2023-05-29T12:55:32;10.57;;;3.80;;
29662;SDS011;16578;53.266;7.920;2023-05-29T12:58:12;13.10;;;3.95;;
29662;SDS011;16578;53.266;7.920;2023-05-29T13:00:38;11.48;;;3.58;;
29662;SDS011;16578;53.266;7.920;2023-05-29T13:03:05;12.55;;;4.22;;
29662;SDS011;16578;53.266;7.920;2023-05-29T13:05:32;11.55;;;3.88;;
29662;SDS011;16578;53.266;7.920;2023-05-29T13:07:58;14.57;;;3.95;;
29662;SDS011;16578;53.266;7.920;2023-05-29T13:10:24;9.82;;;3.35;;
29662;SDS011;16578;53.266;7.920;2023-05-29T13:12:52;9.85;;;3.70;;
29662;SDS011;16578;53.266;7.920;2023-05-29T13:15:24;11.80;;;3.58;;
29662;SDS011;16578;53.266;7.920;2023-05-29T13:17:51;11.50;;;3.67;;
29662;SDS011;16578;53.266;7.920;2023-05-29T13:20:18;14.90;;;3.53;;
29662;SDS011;16578;53.266;7.920;2023-05-29T13:22:44;10.93;;;3.78;;
29662;SDS011;16578;53.266;7.920;2023-05-29T13:25:12;12.98;;;3.85;;
29662;SDS011;16578;53.266;7.920;2023-05-29T13:27:40;6.53;;;2.08;;
29662;SDS011;16578;53.266;7.920;2023-05-29T13:30:08;11.88;;;3.55;;
29662;SDS011;16578;53.266;7.920;2023-05-29T13:32:34;10.70;;;3.30;;
29662;SDS011;16578;53.266;7.920;2023-05-29T13:35:00;10.02;;;3.70;;
29662;SDS011;16578;53.266;7.920;2023-05-29T13:37:26;12.02;;;3.83;;
29662;SDS011;16578;53.266;7.920;2023-05-29T13:39:52;11.98;;;3.58;;
29662;SDS011;16578;53.266;7.920;2023-05-29T13:42:18;9.45;;;3.25;;
29662;SDS011;16578;53.266;7.920;2023-05-29T13:44:44;11.95;;;3.60;;
29662;SDS011;16578;53.266;7.920;2023-05-29T13:47:10;9.32;;;3.28;;
29662;SDS011;16578;53.266;7.920;2023-05-29T13:49:36;10.05;;;3.33;;
29662;SDS011;16578;53.266;7.920;2023-05-29T13:52:02;7.75;;;3.08;;
29662;SDS011;16578;53.266;7.920;2023-05-29T13:54:28;13.23;;;3.63;;
29662;SDS011;16578;53.266;7.920;2023-05-29T13:56:56;9.43;;;2.95;;
29662;SDS011;16578;53.266;7.920;2023-05-29T13:59:23;8.98;;;3.72;;
29662;SDS011;16578;53.266;7.920;2023-05-29T14:01:51;9.93;;;2.70;;
29662;SDS011;16578;53.266;7.920;2023-05-29T14:04:17;11.57;;;3.38;;
29662;SDS011;16578;53.266;7.920;2023-05-29T14:06:43;9.50;;;3.22;;
29662;SDS011;16578;53.266;7.920;2023-05-29T14:09:10;8.18;;;2.95;;
29662;SDS011;16578;53.266;7.920;2023-05-29T14:11:36;10.73;;;3.58;;
29662;SDS011;16578;53.266;7.920;2023-05-29T14:14:02;11.40;;;3.58;;
29662;SDS011;16578;53.266;7.920;2023-05-29T14:16:28;12.85;;;3.05;;
29662;SDS011;16578;53.266;7.920;2023-05-29T14:18:54;7.25;;;2.80;;
29662;SDS011;16578;53.266;7.920;2023-05-29T14:21:19;8.93;;;3.13;;
29662;SDS011;16578;53.266;7.920;2023-05-29T14:23:45;9.57;;;3.53;;
29662;SDS011;16578;53.266;7.920;2023-05-29T14:26:11;13.73;;;3.05;;
29662;SDS011;16578;53.266;7.920;2023-05-29T14:28:37;11.75;;;3.40;;
29662;SDS011;16578;53.266;7.920;2023-05-29T14:31:03;10.13;;;3.40;;
29662;SDS011;16578;53.266;7.920;2023-05-29T14:33:30;10.55;;;3.40;;
29662;SDS011;16578;53.266;7.920;2023-05-29T14:35:55;9.82;;;3.10;;
29662;SDS011;16578;53.266;7.920;2023-05-29T14:38:21;9.05;;;3.10;;
29662;SDS011;16578;53.266;7.920;2023-05-29T14:40:47;9.93;;;3.40;;
29662;SDS011;16578;53.266;7.920;2023-05-29T14:43:12;8.60;;;3.10;;
29662;SDS011;16578;53.266;7.920;2023-05-29T14:45:38;7.82;;;2.95;;
29662;SDS011;16578;53.266;7.920;2023-05-29T14:48:03;7.80;;;2.80;;
29662;SDS011;16578;53.266;7.920;2023-05-29T14:50:29;11.43;;;3.28;;
29662;SDS011;16578;53.266;7.920;2023-05-29T14:52:55;7.28;;;2.38;;
29662;SDS011;16578;53.266;7.920;2023-05-29T14:55:20;8.00;;;2.28;;
29662;SDS011;16578;53.266;7.920;2023-05-29T14:57:46;7.47;;;2.38;;
29662;SDS011;16578;53.266;7.920;2023-05-29T15:00:12;9.07;;;2.92;;
29662;SDS011;16578;53.266;7.920;2023-05-29T15:02:37;12.00;;;3.42;;
29662;SDS011;16578;53.266;7.920;2023-05-29T15:05:04;7.47;;;2.80;;
29662;SDS011;16578;53.266;7.920;2023-05-29T15:07:31;10.98;;;3.50;;